createdAt,value
2023-02-04T00:01:34.484Z,1.77
2023-02-04T00:04:06.762Z,1.70
2023-02-04T00:06:36.191Z,1.86
2023-02-04T00:09:05.560Z,1.95
2023-02-04T00:11:35.083Z,1.79
2023-02-04T00:14:04.527Z,1.70
2023-02-04T00:16:33.971Z,1.70
2023-02-04T00:19:06.031Z,1.72
2023-02-04T00:21:35.481Z,1.68
2023-02-04T00:24:04.901Z,1.76
2023-02-04T00:26:34.347Z,1.82
2023-02-04T00:29:03.702Z,1.89
2023-02-04T00:31:33.722Z,1.79
2023-02-04T00:34:05.818Z,1.67
2023-02-04T00:36:35.318Z,1.73
2023-02-04T00:39:04.742Z,2.00
2023-02-04T00:41:34.121Z,2.28
2023-02-04T00:44:03.512Z,2.36
2023-02-04T00:46:32.971Z,2.34
2023-02-04T00:49:02.403Z,2.31
2023-02-04T00:51:34.405Z,1.83
2023-02-04T00:54:03.770Z,1.70
2023-02-04T00:56:33.233Z,1.57
2023-02-04T00:59:02.749Z,1.43
2023-02-04T01:01:32.541Z,1.52
2023-02-04T01:04:01.938Z,1.39
2023-02-04T01:06:34.147Z,1.26
2023-02-04T01:09:04.085Z,1.19
2023-02-04T01:11:34.163Z,1.15
2023-02-04T01:14:03.625Z,1.05
2023-02-04T01:16:33.126Z,1.11
2023-02-04T01:19:02.532Z,1.07
2023-02-04T01:21:34.606Z,1.04
2023-02-04T01:24:04.042Z,1.00
2023-02-04T01:26:33.528Z,1.06
2023-02-04T01:29:03.008Z,1.04
2023-02-04T01:31:34.135Z,1.01
2023-02-04T01:34:03.898Z,1.25
2023-02-04T01:36:35.970Z,1.35
2023-02-04T01:39:05.351Z,1.35
2023-02-04T01:41:34.821Z,1.65
2023-02-04T01:44:04.312Z,1.89
2023-02-04T01:46:34.464Z,1.87
2023-02-04T01:49:04.028Z,1.40
2023-02-04T01:51:37.151Z,1.51
2023-02-04T01:54:06.876Z,1.64
2023-02-04T01:56:36.239Z,1.85
2023-02-04T01:59:12.630Z,1.95
2023-02-04T02:01:43.631Z,1.97
2023-02-04T02:04:13.719Z,1.51
2023-02-04T02:06:48.297Z,1.38
2023-02-04T02:09:17.768Z,1.38
2023-02-04T02:11:47.378Z,1.19
2023-02-04T02:14:16.973Z,1.10
2023-02-04T02:16:46.538Z,1.21
2023-02-04T02:19:19.047Z,1.51
2023-02-04T02:21:55.000Z,1.61
2023-02-04T02:24:31.473Z,1.69
2023-02-04T02:27:04.137Z,2.03
2023-02-04T02:29:33.772Z,1.55
2023-02-04T02:32:03.260Z,1.34
2023-02-04T02:34:32.993Z,1.46
2023-02-04T02:37:03.111Z,1.39
2023-02-04T02:39:35.450Z,1.40
2023-02-04T02:42:04.929Z,0.97
2023-02-04T02:44:35.114Z,0.62
2023-02-04T02:47:04.695Z,0.46
2023-02-04T02:49:36.923Z,0.49
2023-02-04T02:52:06.618Z,0.66
2023-02-04T02:54:38.753Z,0.89
2023-02-04T02:57:14.177Z,0.86
2023-02-04T02:59:43.889Z,0.85
2023-02-04T03:02:14.690Z,1.03
2023-02-04T03:04:46.232Z,1.12
2023-02-04T03:07:16.547Z,1.26
2023-02-04T03:09:48.614Z,1.47
2023-02-04T03:12:18.103Z,1.23
2023-02-04T03:14:47.599Z,1.13
2023-02-04T03:17:17.023Z,0.86
2023-02-04T03:19:46.513Z,0.59
2023-02-04T03:22:15.923Z,0.69
2023-02-04T03:24:47.906Z,0.88
2023-02-04T03:27:17.925Z,0.88
2023-02-04T03:29:48.073Z,1.03
2023-02-04T03:32:17.494Z,1.18
2023-02-04T03:34:46.879Z,0.94
2023-02-04T03:37:16.356Z,0.98
2023-02-04T03:39:48.318Z,0.86
2023-02-04T03:42:17.787Z,0.51
2023-02-04T03:44:47.223Z,0.84
2023-02-04T03:47:16.678Z,1.11
2023-02-04T03:49:46.111Z,0.99
2023-02-04T03:52:15.494Z,0.70
2023-02-04T03:54:44.873Z,0.65
2023-02-04T03:57:18.050Z,0.71
2023-02-04T03:59:47.482Z,1.04
2023-02-04T04:02:16.892Z,1.12
2023-02-04T04:04:46.306Z,1.01
2023-02-04T04:07:15.742Z,0.61
2023-02-04T04:09:45.162Z,0.66
2023-02-04T04:12:17.157Z,0.65
2023-02-04T04:14:46.570Z,0.63
2023-02-04T04:17:15.934Z,0.69
2023-02-04T04:19:46.218Z,0.77
2023-02-04T04:22:15.662Z,0.76
2023-02-04T04:24:45.536Z,0.70
2023-02-04T04:27:17.543Z,0.82
2023-02-04T04:29:46.979Z,0.88
2023-02-04T04:32:16.782Z,0.76
2023-02-04T04:34:46.135Z,1.05
2023-02-04T04:37:15.707Z,1.24
2023-02-04T04:39:45.111Z,1.67
2023-02-04T04:42:17.084Z,2.25
2023-02-04T04:44:46.493Z,1.95
2023-02-04T04:47:15.848Z,2.57
2023-02-04T04:49:45.212Z,2.22
2023-02-04T04:52:14.661Z,2.14
2023-02-04T04:54:44.100Z,2.35
2023-02-04T04:57:13.464Z,2.45
2023-02-04T04:59:45.465Z,2.26
2023-02-04T05:02:14.870Z,1.38
2023-02-04T05:04:44.254Z,1.05
2023-02-04T05:07:13.817Z,0.91
2023-02-04T05:09:43.237Z,0.82
2023-02-04T05:12:12.668Z,0.82
2023-02-04T05:14:42.053Z,0.68
2023-02-04T05:17:14.102Z,0.60
2023-02-04T05:19:43.531Z,0.61
2023-02-04T05:22:12.945Z,0.54
2023-02-04T05:24:42.320Z,0.50
2023-02-04T05:27:11.682Z,0.44
2023-02-04T05:29:41.085Z,0.36
2023-02-04T05:32:10.555Z,0.35
2023-02-04T05:34:42.576Z,0.35
2023-02-04T05:37:12.053Z,0.36
2023-02-04T05:39:41.423Z,0.36
2023-02-04T05:42:10.800Z,0.26
2023-02-04T05:44:40.211Z,0.28
2023-02-04T05:47:09.570Z,0.32
2023-02-04T05:49:38.999Z,0.26
2023-02-04T05:52:11.569Z,0.28
2023-02-04T05:54:41.070Z,0.18
2023-02-04T05:57:10.479Z,0.11
2023-02-04T05:59:39.860Z,0.06
2023-02-04T06:02:09.265Z,0.05
2023-02-04T06:04:38.758Z,-0.10
2023-02-04T06:07:10.788Z,-0.06
2023-02-04T06:09:40.192Z,-0.07
2023-02-04T06:12:10.613Z,-0.14
2023-02-04T06:14:39.996Z,-0.15
2023-02-04T06:17:09.445Z,-0.25
2023-02-04T06:19:38.912Z,-0.32
2023-02-04T06:22:10.914Z,-0.32
2023-02-04T06:24:40.282Z,-0.37
2023-02-04T06:27:09.672Z,-0.40
2023-02-04T06:29:39.122Z,-0.44
2023-02-04T06:32:08.577Z,-0.47
2023-02-04T06:34:38.017Z,-0.47
2023-02-04T06:37:07.419Z,-0.42
2023-02-04T06:39:39.429Z,-0.41
2023-02-04T06:42:09.034Z,-0.35
2023-02-04T06:44:38.432Z,-0.40
2023-02-04T06:47:07.808Z,-0.44
2023-02-04T06:49:37.193Z,-0.48
2023-02-04T06:52:06.958Z,-0.54
2023-02-04T06:54:39.323Z,-0.52
2023-02-04T06:57:09.223Z,-0.47
2023-02-04T06:59:39.455Z,-0.45
2023-02-04T07:02:11.107Z,-0.47
2023-02-04T07:04:40.556Z,-0.44
2023-02-04T07:07:09.960Z,-0.46
2023-02-04T07:09:42.621Z,-0.43
2023-02-04T07:12:12.057Z,-0.32
2023-02-04T07:14:41.448Z,-0.31
2023-02-04T07:17:10.817Z,-0.30
2023-02-04T07:19:40.251Z,-0.26
2023-02-04T07:22:09.830Z,-0.15
2023-02-04T07:24:41.865Z,-0.19
2023-02-04T07:27:11.329Z,-0.12
2023-02-04T07:29:40.696Z,-0.21
2023-02-04T07:32:10.141Z,-0.26
2023-02-04T07:34:39.568Z,-0.21
2023-02-04T07:37:08.986Z,-0.06
2023-02-04T07:39:38.390Z,0.02
2023-02-04T07:42:10.364Z,-0.07
2023-02-04T07:44:40.199Z,-0.05
2023-02-04T07:47:09.600Z,0.07
2023-02-04T07:49:39.064Z,0.08
2023-02-04T07:52:09.662Z,0.05
2023-02-04T07:54:39.111Z,0.02
2023-02-04T07:57:11.135Z,-0.03
2023-02-04T07:59:40.567Z,0.05
2023-02-04T08:02:10.128Z,0.13
2023-02-04T08:04:40.049Z,0.18
2023-02-04T08:07:09.426Z,0.28
2023-02-04T08:09:38.807Z,0.38
2023-02-04T08:12:10.970Z,0.30
2023-02-04T08:14:40.379Z,0.37
2023-02-04T08:17:09.801Z,0.34
2023-02-04T08:19:39.201Z,0.37
2023-02-04T08:22:08.817Z,0.40
2023-02-04T08:24:38.227Z,0.53
2023-02-04T08:27:07.716Z,0.73
2023-02-04T08:29:39.742Z,0.74
2023-02-04T08:32:10.129Z,0.76
2023-02-04T08:34:39.647Z,0.87
2023-02-04T08:37:09.011Z,0.84
2023-02-04T08:39:38.546Z,0.86
2023-02-04T08:42:07.959Z,0.96
2023-02-04T08:44:39.957Z,1.04
2023-02-04T08:47:09.970Z,1.06
2023-02-04T08:49:39.474Z,1.14
2023-02-04T08:52:09.116Z,1.77
2023-02-04T08:54:38.848Z,2.68
2023-02-04T08:57:08.346Z,3.37
2023-02-04T08:59:40.326Z,3.27
2023-02-04T09:02:09.817Z,3.49
2023-02-04T09:04:39.265Z,2.73
2023-02-04T09:07:08.744Z,2.59
2023-02-04T09:09:38.164Z,2.34
2023-02-04T09:12:07.532Z,2.13
2023-02-04T09:14:36.937Z,2.29
2023-02-04T09:17:08.883Z,2.14
2023-02-04T09:19:38.317Z,2.21
2023-02-04T09:22:07.768Z,2.45
2023-02-04T09:24:37.127Z,2.62
2023-02-04T09:27:06.747Z,2.56
2023-02-04T09:29:36.172Z,2.58
2023-02-04T09:32:05.619Z,2.64
2023-02-04T09:34:37.627Z,2.67
2023-02-04T09:37:07.094Z,2.68
2023-02-04T09:39:36.517Z,2.81
2023-02-04T09:42:06.213Z,2.74
2023-02-04T09:44:35.656Z,2.71
2023-02-04T09:47:05.030Z,2.64
2023-02-04T09:49:36.999Z,2.75
2023-02-04T09:52:06.885Z,2.62
2023-02-04T09:54:38.372Z,2.54
2023-02-04T09:57:13.601Z,2.54
2023-02-04T09:59:43.294Z,2.60
2023-02-04T10:02:22.395Z,2.66
2023-02-04T10:04:57.581Z,2.60
2023-02-04T10:07:27.853Z,2.79
2023-02-04T10:09:57.631Z,3.60
2023-02-04T10:12:27.743Z,3.36
2023-02-04T10:14:57.128Z,3.65
2023-02-04T10:17:26.608Z,3.62
2023-02-04T10:19:58.835Z,3.35
2023-02-04T10:22:28.209Z,3.07
2023-02-04T10:24:57.623Z,2.97
2023-02-04T10:27:27.108Z,3.10
2023-02-04T10:29:59.485Z,3.41
2023-02-04T10:32:31.338Z,3.56
2023-02-04T10:35:05.170Z,3.31
2023-02-04T10:37:34.728Z,3.34
2023-02-04T10:40:04.238Z,3.13
2023-02-04T10:42:34.083Z,2.92
2023-02-04T10:45:03.452Z,2.73
2023-02-04T10:47:35.945Z,2.87
2023-02-04T10:50:17.826Z,2.99
2023-02-04T10:52:49.624Z,3.14
2023-02-04T10:55:18.970Z,3.28
2023-02-04T10:57:50.064Z,3.25
2023-02-04T11:00:21.636Z,3.18
2023-02-04T11:02:59.541Z,3.22
2023-02-04T11:05:33.585Z,3.10
2023-02-04T11:08:03.277Z,3.16
2023-02-04T11:10:34.363Z,3.17
2023-02-04T11:13:06.257Z,3.21
2023-02-04T11:15:50.167Z,3.33
2023-02-04T11:18:32.682Z,3.45
2023-02-04T11:21:04.664Z,3.53
2023-02-04T11:23:37.202Z,3.57
2023-02-04T11:26:19.204Z,3.52
2023-02-04T11:29:10.988Z,3.56
2023-02-04T11:31:58.795Z,3.63
2023-02-04T11:34:34.020Z,3.75
2023-02-04T11:37:33.472Z,3.76
2023-02-04T11:40:03.885Z,3.68
2023-02-04T11:42:35.934Z,3.74
2023-02-04T11:45:15.800Z,3.80
2023-02-04T11:47:45.746Z,3.97
2023-02-04T11:50:18.878Z,4.07
2023-02-04T11:52:50.844Z,4.10
2023-02-04T11:55:21.171Z,4.11
2023-02-04T11:57:54.893Z,4.12
2023-02-04T12:00:25.776Z,4.08
2023-02-04T12:02:59.277Z,4.16
2023-02-04T12:05:39.539Z,4.18
2023-02-04T12:08:29.272Z,4.10
2023-02-04T12:11:07.800Z,4.10
2023-02-04T12:13:37.688Z,4.10
2023-02-04T12:16:09.264Z,4.01
2023-02-04T12:18:39.095Z,3.95
2023-02-04T12:21:08.652Z,3.94
2023-02-04T12:23:42.459Z,3.89
2023-02-04T12:26:12.177Z,3.91
2023-02-04T12:28:41.704Z,3.90
2023-02-04T12:31:11.265Z,3.91
2023-02-04T12:33:40.840Z,3.91
2023-02-04T12:36:11.212Z,3.95
2023-02-04T12:38:43.358Z,4.07
2023-02-04T12:41:12.964Z,4.05
2023-02-04T12:43:42.384Z,4.14
2023-02-04T12:46:11.820Z,4.42
2023-02-04T12:48:41.335Z,4.58
2023-02-04T12:51:10.753Z,4.56
2023-02-04T12:53:42.723Z,4.48
2023-02-04T12:56:12.168Z,4.24
2023-02-04T12:58:41.553Z,4.21
2023-02-04T13:01:11.029Z,4.37
2023-02-04T13:03:40.448Z,4.52
2023-02-04T13:06:10.037Z,4.75
2023-02-04T13:08:39.438Z,4.92
2023-02-04T13:11:11.438Z,5.09
2023-02-04T13:13:40.954Z,5.24
2023-02-04T13:16:11.236Z,5.53
2023-02-04T13:18:40.644Z,5.68
2023-02-04T13:21:10.025Z,5.70
2023-02-04T13:23:39.386Z,6.12
2023-02-04T13:26:11.686Z,6.22
2023-02-04T13:28:41.114Z,6.31
2023-02-04T13:31:10.579Z,6.27
2023-02-04T13:33:40.063Z,6.06
2023-02-04T13:36:10.252Z,5.83
2023-02-04T13:38:39.664Z,5.67
2023-02-04T13:41:11.671Z,5.66
2023-02-04T13:43:41.074Z,5.64
2023-02-04T13:46:10.508Z,6.49
2023-02-04T13:48:39.933Z,7.05
2023-02-04T13:51:09.321Z,6.94
2023-02-04T13:53:38.790Z,6.65
2023-02-04T13:56:10.957Z,6.69
2023-02-04T13:58:43.771Z,6.85
2023-02-04T14:01:13.240Z,6.59
2023-02-04T14:03:43.851Z,6.36
2023-02-04T14:06:15.164Z,6.31
2023-02-04T14:08:44.550Z,6.13
2023-02-04T14:11:16.576Z,6.04
2023-02-04T14:13:45.943Z,5.78
2023-02-04T14:16:15.391Z,5.70
2023-02-04T14:18:44.846Z,5.60
2023-02-04T14:21:14.222Z,5.58
2023-02-04T14:23:43.671Z,5.56
2023-02-04T14:26:13.109Z,5.53
2023-02-04T14:28:45.102Z,5.36
2023-02-04T14:31:14.506Z,5.10
2023-02-04T14:33:43.909Z,5.08
2023-02-04T14:36:13.420Z,5.03
2023-02-04T14:38:42.781Z,5.15
2023-02-04T14:41:16.308Z,4.88
2023-02-04T14:43:48.347Z,4.81
2023-02-04T14:46:17.849Z,4.65
2023-02-04T14:48:47.712Z,4.53
2023-02-04T14:51:17.160Z,4.21
2023-02-04T14:53:48.597Z,4.13
2023-02-04T14:56:18.380Z,4.05
2023-02-04T14:58:50.376Z,4.02
2023-02-04T15:01:20.555Z,4.04
2023-02-04T15:03:50.953Z,4.05
2023-02-04T15:06:20.419Z,3.89
2023-02-04T15:08:49.856Z,3.83
2023-02-04T15:11:19.249Z,3.82
2023-02-04T15:13:51.256Z,3.71
2023-02-04T15:16:20.737Z,3.53
2023-02-04T15:18:50.276Z,3.37
2023-02-04T15:21:20.010Z,3.29
2023-02-04T15:23:49.966Z,3.19
2023-02-04T15:26:19.388Z,3.25
2023-02-04T15:28:51.386Z,3.20
2023-02-04T15:31:20.844Z,3.11
2023-02-04T15:33:50.389Z,3.05
2023-02-04T15:36:19.905Z,3.07
2023-02-04T15:38:49.579Z,3.02
2023-02-04T15:41:18.947Z,2.91
2023-02-04T15:43:51.548Z,2.82
2023-02-04T15:46:21.064Z,2.76
2023-02-04T15:48:50.477Z,2.78
2023-02-04T15:51:20.328Z,2.81
2023-02-04T15:53:49.836Z,2.75
2023-02-04T15:56:19.274Z,2.75
2023-02-04T15:58:51.275Z,2.69
2023-02-04T16:01:20.884Z,2.59
2023-02-04T16:03:51.222Z,2.56
2023-02-04T16:06:20.658Z,2.59
2023-02-04T16:08:50.139Z,2.52
2023-02-04T16:11:19.619Z,2.47
2023-02-04T16:13:51.661Z,2.48
2023-02-04T16:16:21.108Z,2.40
2023-02-04T16:18:50.503Z,2.40
2023-02-04T16:21:19.881Z,2.45
2023-02-04T16:23:49.305Z,2.43
2023-02-04T16:26:18.709Z,2.37
2023-02-04T16:28:50.932Z,2.28
2023-02-04T16:31:20.390Z,2.29
2023-02-04T16:33:49.820Z,2.27
2023-02-04T16:36:19.470Z,2.25
2023-02-04T16:38:48.831Z,2.19
2023-02-04T16:41:18.253Z,2.18
2023-02-04T16:43:47.677Z,2.13
2023-02-04T16:46:19.840Z,2.12
2023-02-04T16:48:49.255Z,2.07
2023-02-04T16:51:20.430Z,2.06
2023-02-04T16:53:50.471Z,2.05
2023-02-04T16:56:20.110Z,2.00
2023-02-04T16:58:51.398Z,1.94
2023-02-04T17:01:23.380Z,1.94
2023-02-04T17:03:58.054Z,1.97
2023-02-04T17:06:27.992Z,1.96
2023-02-04T17:08:57.567Z,1.87
2023-02-04T17:11:34.031Z,1.88
2023-02-04T17:14:04.654Z,1.87
2023-02-04T17:16:36.711Z,2.09
2023-02-04T17:19:06.592Z,2.66
2023-02-04T17:21:36.038Z,2.53
2023-02-04T17:24:06.235Z,2.48
2023-02-04T17:26:37.575Z,2.17
2023-02-04T17:29:08.099Z,2.14
2023-02-04T17:31:40.764Z,2.06
2023-02-04T17:34:10.174Z,2.05
2023-02-04T17:36:39.629Z,1.99
2023-02-04T17:39:09.417Z,1.89
2023-02-04T17:41:38.816Z,1.89
2023-02-04T17:44:08.577Z,2.20
2023-02-04T17:46:40.663Z,2.39
2023-02-04T17:49:10.138Z,2.42
2023-02-04T17:51:39.600Z,2.39
2023-02-04T17:54:09.025Z,2.19
2023-02-04T17:56:38.433Z,2.36
2023-02-04T17:59:09.020Z,2.35
2023-02-04T18:01:41.318Z,2.27
2023-02-04T18:04:14.578Z,2.24
2023-02-04T18:06:44.005Z,1.90
2023-02-04T18:09:17.404Z,1.58
2023-02-04T18:11:47.217Z,1.53
2023-02-04T18:14:20.567Z,1.79
2023-02-04T18:16:53.866Z,1.89
2023-02-04T18:19:24.537Z,1.81
2023-02-04T18:21:57.289Z,2.18
2023-02-04T18:24:30.240Z,3.06
2023-02-04T18:27:05.484Z,2.42
2023-02-04T18:29:36.719Z,2.03
2023-02-04T18:32:15.726Z,2.10
2023-02-04T18:34:47.447Z,2.15
2023-02-04T18:37:29.968Z,2.26
2023-02-04T18:40:21.079Z,1.87
2023-02-04T18:42:50.661Z,1.42
2023-02-04T18:45:27.115Z,1.20
2023-02-04T18:48:00.814Z,1.04
2023-02-04T18:50:32.666Z,0.89
2023-02-04T18:53:03.624Z,0.91
2023-02-04T18:55:37.254Z,0.92
2023-02-04T18:58:25.140Z,0.91
2023-02-04T19:00:56.661Z,0.93
2023-02-04T19:03:31.214Z,0.88
2023-02-04T19:06:02.816Z,1.85
2023-02-04T19:08:37.863Z,2.76
2023-02-04T19:11:23.020Z,2.11
2023-02-04T19:13:52.940Z,1.61
2023-02-04T19:16:25.922Z,1.14
2023-02-04T19:18:59.140Z,0.95
2023-02-04T19:21:31.269Z,0.85
2023-02-04T19:24:14.171Z,0.74
2023-02-04T19:26:46.311Z,0.82
2023-02-04T19:29:48.338Z,0.75
2023-02-04T19:32:36.897Z,0.65
2023-02-04T19:35:20.365Z,0.66
2023-02-04T19:37:54.125Z,0.58
2023-02-04T19:40:33.520Z,0.51
2023-02-04T19:43:17.970Z,0.43
2023-02-04T19:45:49.573Z,0.43
2023-02-04T19:48:24.360Z,0.46
2023-02-04T19:50:56.868Z,0.35
2023-02-04T19:53:30.397Z,0.37
2023-02-04T19:55:59.823Z,0.35
2023-02-04T19:58:31.363Z,0.33
2023-02-04T20:01:03.482Z,0.27
2023-02-04T20:03:38.632Z,0.22
2023-02-04T20:06:26.448Z,0.15
2023-02-04T20:09:01.399Z,0.02
2023-02-04T20:11:45.121Z,-0.10
2023-02-04T20:14:29.949Z,-0.09
2023-02-04T20:17:01.075Z,-0.12
2023-02-04T20:19:37.904Z,-0.13
2023-02-04T20:22:37.559Z,-0.15
2023-02-04T20:25:36.327Z,-0.24
2023-02-04T20:28:14.664Z,-0.26
2023-02-04T20:30:44.326Z,-0.34
2023-02-04T20:33:26.545Z,-0.36
2023-02-04T20:36:27.707Z,-0.39
2023-02-04T20:39:14.615Z,-0.38
2023-02-04T20:41:44.073Z,-0.34
2023-02-04T20:44:18.184Z,-0.42
2023-02-04T20:46:47.619Z,-0.49
2023-02-04T20:49:24.909Z,-0.49
2023-02-04T20:51:54.852Z,-0.42
2023-02-04T20:54:26.858Z,-0.52
2023-02-04T20:56:56.311Z,-0.59
2023-02-04T20:59:31.909Z,-0.61
2023-02-04T21:02:04.678Z,-0.68
2023-02-04T21:04:37.915Z,-0.59
2023-02-04T21:07:15.194Z,-0.71
2023-02-04T21:09:48.197Z,-0.77
2023-02-04T21:12:18.019Z,-0.82
2023-02-04T21:14:47.384Z,-0.78
2023-02-04T21:17:16.801Z,-0.91
2023-02-04T21:19:46.247Z,-0.89
2023-02-04T21:22:15.691Z,-0.91
2023-02-04T21:24:48.145Z,-0.82
2023-02-04T21:27:23.779Z,-0.85
2023-02-04T21:29:53.226Z,-0.94
2023-02-04T21:32:25.805Z,-0.87
2023-02-04T21:34:55.179Z,-0.94
2023-02-04T21:37:24.609Z,-0.83
2023-02-04T21:39:59.385Z,-0.98
2023-02-04T21:42:29.284Z,-1.00
2023-02-04T21:45:01.408Z,-0.98
2023-02-04T21:47:30.944Z,-0.98
2023-02-04T21:50:00.365Z,-0.96
2023-02-04T21:52:29.820Z,-1.02
2023-02-04T21:55:01.850Z,-1.04
2023-02-04T21:57:32.154Z,-1.10
2023-02-04T22:00:01.594Z,-1.26
2023-02-04T22:02:31.094Z,-1.18
2023-02-04T22:05:00.551Z,-1.16
2023-02-04T22:07:29.986Z,-1.34
2023-02-04T22:10:01.959Z,-1.38
2023-02-04T22:12:31.378Z,-1.38
2023-02-04T22:15:02.272Z,-1.40
2023-02-04T22:17:32.807Z,-1.45
2023-02-04T22:20:02.170Z,-1.44
2023-02-04T22:22:31.569Z,-1.52
2023-02-04T22:25:03.583Z,-1.52
2023-02-04T22:27:32.985Z,-1.58
2023-02-04T22:30:03.244Z,-1.39
2023-02-04T22:32:33.084Z,-1.39
2023-02-04T22:35:02.535Z,-0.74
2023-02-04T22:37:31.973Z,-0.51
2023-02-04T22:40:03.973Z,-0.60
2023-02-04T22:42:33.407Z,-0.62
2023-02-04T22:45:03.894Z,-0.49
2023-02-04T22:47:33.360Z,-0.68
2023-02-04T22:50:02.802Z,-0.75
2023-02-04T22:52:32.196Z,-0.65
2023-02-04T22:55:04.140Z,-0.73
2023-02-04T22:57:33.562Z,-0.70
2023-02-04T23:00:02.986Z,-0.59
2023-02-04T23:02:32.381Z,-0.75
2023-02-04T23:05:01.812Z,-0.66
2023-02-04T23:07:31.200Z,-0.76
2023-02-04T23:10:00.636Z,-0.86
2023-02-04T23:12:32.640Z,-1.22
2023-02-04T23:15:02.160Z,-1.34
2023-02-04T23:17:31.557Z,-1.51
2023-02-04T23:20:00.981Z,-1.66
2023-02-04T23:22:30.434Z,-1.77
2023-02-04T23:25:00.177Z,-1.80
2023-02-04T23:27:32.224Z,-1.75
2023-02-04T23:30:01.628Z,-1.84
2023-02-04T23:32:31.038Z,-1.91
2023-02-04T23:35:00.462Z,-1.91
2023-02-04T23:37:29.866Z,-1.85
2023-02-04T23:39:59.274Z,-1.92
2023-02-04T23:42:28.690Z,-2.01
2023-02-04T23:45:00.698Z,-1.92
2023-02-04T23:47:30.180Z,-1.99
2023-02-04T23:49:59.547Z,-1.87
2023-02-04T23:52:29.393Z,-1.87
2023-02-04T23:54:58.861Z,-1.96
2023-02-04T23:57:28.333Z,-1.96
